sensor_id;sensor_type;location;lat;lon;timestamp;P1;durP1;ratioP1;P2;durP2;ratioP2
66542;SDS011;53395;37.360;-122.046;2024-02-15T00:01:25;0.73;;;0.30;;
66542;SDS011;53395;37.360;-122.046;2024-02-15T00:04:10;1.30;;;0.20;;
66542;SDS011;53395;37.360;-122.046;2024-02-15T00:06:54;1.02;;;0.25;;
66542;SDS011;53395;37.360;-122.046;2024-02-15T00:09:39;1.65;;;0.30;;
66542;SDS011;53395;37.360;-122.046;2024-02-15T00:12:23;0.50;;;0.20;;
66542;SDS011;53395;37.360;-122.046;2024-02-15T00:15:08;1.00;;;0.20;;
66542;SDS011;53395;37.360;-122.046;2024-02-15T00:17:52;0.60;;;0.20;;
66542;SDS011;53395;37.360;-122.046;2024-02-15T00:20:37;1.25;;;0.20;;
66542;SDS011;53395;37.360;-122.046;2024-02-15T00:23:22;1.35;;;0.35;;
66542;SDS011;53395;37.360;-122.046;2024-02-15T00:26:07;2.15;;;0.30;;
66542;SDS011;53395;37.360;-122.046;2024-02-15T00:28:54;2.92;;;0.40;;
66542;SDS011;53395;37.360;-122.046;2024-02-15T00:31:38;2.13;;;0.50;;
66542;SDS011;53395;37.360;-122.046;2024-02-15T00:34:23;1.52;;;0.38;;
66542;SDS011;53395;37.360;-122.046;2024-02-15T00:37:09;2.45;;;0.30;;
66542;SDS011;53395;37.360;-122.046;2024-02-15T00:39:54;1.98;;;0.65;;
66542;SDS011;53395;37.360;-122.046;2024-02-15T00:42:38;0.75;;;0.20;;
66542;SDS011;53395;37.360;-122.046;2024-02-15T00:45:23;1.42;;;0.30;;
66542;SDS011;53395;37.360;-122.046;2024-02-15T00:48:07;1.08;;;0.28;;
66542;SDS011;53395;37.360;-122.046;2024-02-15T00:50:51;0.98;;;0.30;;
66542;SDS011;53395;37.360;-122.046;2024-02-15T00:53:36;1.95;;;0.43;;
66542;SDS011;53395;37.360;-122.046;2024-02-15T00:56:20;0.73;;;0.28;;
66542;SDS011;53395;37.360;-122.046;2024-02-15T00:59:06;0.40;;;0.25;;
66542;SDS011;53395;37.360;-122.046;2024-02-15T01:01:50;2.50;;;0.40;;
66542;SDS011;53395;37.360;-122.046;2024-02-15T01:04:37;0.30;;;0.10;;
66542;SDS011;53395;37.360;-122.046;2024-02-15T01:07:21;1.25;;;0.30;;
66542;SDS011;53395;37.360;-122.046;2024-02-15T01:10:06;0.55;;;0.30;;
66542;SDS011;53395;37.360;-122.046;2024-02-15T01:12:50;2.15;;;0.28;;
66542;SDS011;53395;37.360;-122.046;2024-02-15T01:15:35;1.23;;;0.40;;
66542;SDS011;53395;37.360;-122.046;2024-02-15T01:18:21;0.38;;;0.20;;
66542;SDS011;53395;37.360;-122.046;2024-02-15T01:21:05;3.00;;;0.30;;
66542;SDS011;53395;37.360;-122.046;2024-02-15T01:23:50;0.75;;;0.30;;
66542;SDS011;53395;37.360;-122.046;2024-02-15T01:26:37;1.45;;;0.32;;
66542;SDS011;53395;37.360;-122.046;2024-02-15T01:29:22;1.35;;;0.25;;
66542;SDS011;53395;37.360;-122.046;2024-02-15T01:32:06;1.55;;;0.30;;
66542;SDS011;53395;37.360;-122.046;2024-02-15T01:34:51;0.68;;;0.25;;
66542;SDS011;53395;37.360;-122.046;2024-02-15T01:37:38;0.73;;;0.30;;
66542;SDS011;53395;37.360;-122.046;2024-02-15T01:40:25;1.52;;;0.30;;
66542;SDS011;53395;37.360;-122.046;2024-02-15T01:43:10;2.17;;;0.30;;
66542;SDS011;53395;37.360;-122.046;2024-02-15T01:45:56;0.90;;;0.30;;
66542;SDS011;53395;37.360;-122.046;2024-02-15T01:48:44;0.70;;;0.30;;
66542;SDS011;53395;37.360;-122.046;2024-02-15T01:51:29;2.65;;;0.30;;
66542;SDS011;53395;37.360;-122.046;2024-02-15T01:54:14;1.27;;;0.38;;
66542;SDS011;53395;37.360;-122.046;2024-02-15T01:57:00;1.85;;;0.40;;
66542;SDS011;53395;37.360;-122.046;2024-02-15T01:59:46;1.92;;;0.30;;
66542;SDS011;53395;37.360;-122.046;2024-02-15T02:02:31;1.38;;;0.52;;
66542;SDS011;53395;37.360;-122.046;2024-02-15T02:05:15;2.30;;;0.38;;
66542;SDS011;53395;37.360;-122.046;2024-02-15T02:08:00;0.70;;;0.20;;
66542;SDS011;53395;37.360;-122.046;2024-02-15T02:10:48;0.63;;;0.20;;
66542;SDS011;53395;37.360;-122.046;2024-02-15T02:13:32;0.55;;;0.30;;
66542;SDS011;53395;37.360;-122.046;2024-02-15T02:16:26;1.13;;;0.50;;
66542;SDS011;53395;37.360;-122.046;2024-02-15T02:19:11;0.73;;;0.32;;
66542;SDS011;53395;37.360;-122.046;2024-02-15T02:21:56;2.72;;;0.30;;
66542;SDS011;53395;37.360;-122.046;2024-02-15T02:24:44;0.40;;;0.15;;
66542;SDS011;53395;37.360;-122.046;2024-02-15T02:27:32;1.52;;;0.47;;
66542;SDS011;53395;37.360;-122.046;2024-02-15T02:30:16;3.38;;;0.47;;
66542;SDS011;53395;37.360;-122.046;2024-02-15T02:33:02;3.15;;;0.90;;
66542;SDS011;53395;37.360;-122.046;2024-02-15T02:35:49;2.30;;;1.73;;
66542;SDS011;53395;37.360;-122.046;2024-02-15T02:38:33;82.32;;;76.43;;
66542;SDS011;53395;37.360;-122.046;2024-02-15T02:41:17;544.60;;;494.88;;
66542;SDS011;53395;37.360;-122.046;2024-02-15T02:44:03;1999.90;;;999.90;;
66542;SDS011;53395;37.360;-122.046;2024-02-15T02:46:48;1999.90;;;999.90;;
66542;SDS011;53395;37.360;-122.046;2024-02-15T02:49:34;323.08;;;240.98;;
66542;SDS011;53395;37.360;-122.046;2024-02-15T02:52:19;1999.90;;;999.90;;
66542;SDS011;53395;37.360;-122.046;2024-02-15T02:55:04;1145.72;;;828.72;;
66542;SDS011;53395;37.360;-122.046;2024-02-15T02:57:50;38.03;;;31.10;;
66542;SDS011;53395;37.360;-122.046;2024-02-15T03:00:35;6.32;;;5.10;;
66542;SDS011;53395;37.360;-122.046;2024-02-15T03:03:19;11.40;;;7.40;;
66542;SDS011;53395;37.360;-122.046;2024-02-15T03:06:04;5.13;;;3.75;;
66542;SDS011;53395;37.360;-122.046;2024-02-15T03:08:48;4.95;;;2.83;;
66542;SDS011;53395;37.360;-122.046;2024-02-15T03:14:19;1.63;;;0.73;;
66542;SDS011;53395;37.360;-122.046;2024-02-15T03:17:04;2.22;;;0.50;;
66542;SDS011;53395;37.360;-122.046;2024-02-15T03:19:50;1.30;;;0.57;;
66542;SDS011;53395;37.360;-122.046;2024-02-15T03:22:34;3.03;;;0.85;;
66542;SDS011;53395;37.360;-122.046;2024-02-15T03:25:19;2.42;;;0.50;;
66542;SDS011;53395;37.360;-122.046;2024-02-15T03:28:07;2.38;;;0.73;;
66542;SDS011;53395;37.360;-122.046;2024-02-15T03:30:52;1.98;;;0.63;;
66542;SDS011;53395;37.360;-122.046;2024-02-15T03:33:36;0.82;;;0.30;;
66542;SDS011;53395;37.360;-122.046;2024-02-15T03:36:21;2.17;;;0.60;;
66542;SDS011;53395;37.360;-122.046;2024-02-15T03:39:05;2.60;;;0.57;;
66542;SDS011;53395;37.360;-122.046;2024-02-15T03:41:50;3.00;;;0.40;;
66542;SDS011;53395;37.360;-122.046;2024-02-15T03:44:37;2.83;;;0.70;;
66542;SDS011;53395;37.360;-122.046;2024-02-15T03:47:22;1.20;;;0.40;;
66542;SDS011;53395;37.360;-122.046;2024-02-15T03:50:08;2.50;;;0.55;;
66542;SDS011;53395;37.360;-122.046;2024-02-15T03:52:56;5.57;;;1.10;;
66542;SDS011;53395;37.360;-122.046;2024-02-15T03:55:40;5.45;;;3.22;;
66542;SDS011;53395;37.360;-122.046;2024-02-15T03:58:25;3.08;;;1.10;;
66542;SDS011;53395;37.360;-122.046;2024-02-15T04:01:09;3.65;;;0.70;;
66542;SDS011;53395;37.360;-122.046;2024-02-15T04:03:53;5.18;;;0.85;;
66542;SDS011;53395;37.360;-122.046;2024-02-15T04:06:39;3.30;;;0.88;;
66542;SDS011;53395;37.360;-122.046;2024-02-15T04:09:25;3.45;;;1.00;;
66542;SDS011;53395;37.360;-122.046;2024-02-15T04:12:10;4.65;;;0.90;;
66542;SDS011;53395;37.360;-122.046;2024-02-15T04:14:55;3.30;;;1.00;;
66542;SDS011;53395;37.360;-122.046;2024-02-15T04:17:43;4.53;;;0.95;;
66542;SDS011;53395;37.360;-122.046;2024-02-15T04:20:28;2.75;;;0.80;;
66542;SDS011;53395;37.360;-122.046;2024-02-15T04:23:13;3.30;;;1.58;;
66542;SDS011;53395;37.360;-122.046;2024-02-15T04:25:57;4.15;;;1.60;;
66542;SDS011;53395;37.360;-122.046;2024-02-15T04:28:43;6.72;;;2.28;;
66542;SDS011;53395;37.360;-122.046;2024-02-15T04:31:31;5.90;;;2.17;;
66542;SDS011;53395;37.360;-122.046;2024-02-15T04:34:20;5.85;;;1.90;;
66542;SDS011;53395;37.360;-122.046;2024-02-15T04:37:05;3.72;;;1.35;;
66542;SDS011;53395;37.360;-122.046;2024-02-15T04:39:52;5.15;;;1.55;;
66542;SDS011;53395;37.360;-122.046;2024-02-15T04:42:36;4.15;;;1.23;;
66542;SDS011;53395;37.360;-122.046;2024-02-15T04:45:29;3.55;;;1.20;;
66542;SDS011;53395;37.360;-122.046;2024-02-15T04:48:14;4.75;;;1.30;;
66542;SDS011;53395;37.360;-122.046;2024-02-15T04:50:59;4.43;;;1.27;;
66542;SDS011;53395;37.360;-122.046;2024-02-15T04:53:43;5.40;;;1.30;;
66542;SDS011;53395;37.360;-122.046;2024-02-15T04:56:30;3.80;;;0.90;;
66542;SDS011;53395;37.360;-122.046;2024-02-15T04:59:17;4.00;;;1.10;;
66542;SDS011;53395;37.360;-122.046;2024-02-15T05:02:01;4.97;;;1.45;;
66542;SDS011;53395;37.360;-122.046;2024-02-15T05:04:46;3.00;;;1.30;;
66542;SDS011;53395;37.360;-122.046;2024-02-15T05:07:30;4.53;;;1.50;;
66542;SDS011;53395;37.360;-122.046;2024-02-15T05:10:16;5.78;;;1.67;;
66542;SDS011;53395;37.360;-122.046;2024-02-15T05:13:00;5.57;;;1.85;;
66542;SDS011;53395;37.360;-122.046;2024-02-15T05:15:45;5.47;;;1.58;;
66542;SDS011;53395;37.360;-122.046;2024-02-15T05:18:29;5.55;;;1.48;;
66542;SDS011;53395;37.360;-122.046;2024-02-15T05:21:14;3.92;;;1.67;;
66542;SDS011;53395;37.360;-122.046;2024-02-15T05:23:59;5.68;;;2.00;;
66542;SDS011;53395;37.360;-122.046;2024-02-15T05:26:44;4.70;;;1.75;;
66542;SDS011;53395;37.360;-122.046;2024-02-15T05:29:32;6.15;;;1.60;;
66542;SDS011;53395;37.360;-122.046;2024-02-15T05:32:19;5.05;;;1.90;;
66542;SDS011;53395;37.360;-122.046;2024-02-15T05:35:04;5.18;;;1.55;;
66542;SDS011;53395;37.360;-122.046;2024-02-15T05:37:48;5.35;;;1.88;;
66542;SDS011;53395;37.360;-122.046;2024-02-15T05:40:33;4.43;;;1.88;;
66542;SDS011;53395;37.360;-122.046;2024-02-15T05:43:17;4.13;;;1.80;;
66542;SDS011;53395;37.360;-122.046;2024-02-15T05:46:05;5.97;;;1.92;;
66542;SDS011;53395;37.360;-122.046;2024-02-15T05:48:52;6.10;;;1.92;;
66542;SDS011;53395;37.360;-122.046;2024-02-15T05:51:37;7.20;;;2.15;;
66542;SDS011;53395;37.360;-122.046;2024-02-15T05:54:21;4.32;;;1.65;;
66542;SDS011;53395;37.360;-122.046;2024-02-15T05:57:09;7.55;;;2.38;;
66542;SDS011;53395;37.360;-122.046;2024-02-15T05:59:53;5.65;;;2.38;;
66542;SDS011;53395;37.360;-122.046;2024-02-15T06:02:38;5.55;;;2.70;;
66542;SDS011;53395;37.360;-122.046;2024-02-15T06:05:23;9.60;;;4.40;;
66542;SDS011;53395;37.360;-122.046;2024-02-15T06:08:07;12.00;;;5.05;;
66542;SDS011;53395;37.360;-122.046;2024-02-15T06:10:52;12.02;;;5.15;;
66542;SDS011;53395;37.360;-122.046;2024-02-15T06:13:37;10.55;;;4.70;;
66542;SDS011;53395;37.360;-122.046;2024-02-15T06:16:22;10.95;;;4.40;;
66542;SDS011;53395;37.360;-122.046;2024-02-15T06:19:06;7.57;;;3.65;;
66542;SDS011;53395;37.360;-122.046;2024-02-15T06:21:51;7.80;;;2.90;;
66542;SDS011;53395;37.360;-122.046;2024-02-15T06:24:35;9.43;;;3.08;;
66542;SDS011;53395;37.360;-122.046;2024-02-15T06:27:19;6.38;;;2.83;;
66542;SDS011;53395;37.360;-122.046;2024-02-15T06:30:04;6.57;;;3.08;;
66542;SDS011;53395;37.360;-122.046;2024-02-15T06:33:07;7.57;;;3.75;;
66542;SDS011;53395;37.360;-122.046;2024-02-15T06:36:24;9.50;;;3.80;;
66542;SDS011;53395;37.360;-122.046;2024-02-15T06:39:27;8.50;;;4.72;;
66542;SDS011;53395;37.360;-122.046;2024-02-15T06:42:26;9.13;;;4.60;;
66542;SDS011;53395;37.360;-122.046;2024-02-15T06:45:14;10.40;;;4.88;;
66542;SDS011;53395;37.360;-122.046;2024-02-15T06:47:58;7.68;;;4.28;;
66542;SDS011;53395;37.360;-122.046;2024-02-15T06:50:42;11.48;;;5.22;;
66542;SDS011;53395;37.360;-122.046;2024-02-15T06:53:28;10.32;;;4.65;;
66542;SDS011;53395;37.360;-122.046;2024-02-15T06:56:14;10.57;;;5.22;;
66542;SDS011;53395;37.360;-122.046;2024-02-15T06:58:58;14.45;;;6.75;;
66542;SDS011;53395;37.360;-122.046;2024-02-15T07:01:44;13.05;;;7.10;;
66542;SDS011;53395;37.360;-122.046;2024-02-15T07:04:28;17.58;;;8.63;;
66542;SDS011;53395;37.360;-122.046;2024-02-15T07:07:13;22.73;;;11.82;;
66542;SDS011;53395;37.360;-122.046;2024-02-15T07:09:58;20.73;;;11.05;;
66542;SDS011;53395;37.360;-122.046;2024-02-15T07:12:42;22.65;;;11.95;;
66542;SDS011;53395;37.360;-122.046;2024-02-15T07:15:27;17.25;;;8.85;;
66542;SDS011;53395;37.360;-122.046;2024-02-15T07:18:12;16.70;;;7.90;;
66542;SDS011;53395;37.360;-122.046;2024-02-15T07:20:57;16.13;;;8.18;;
66542;SDS011;53395;37.360;-122.046;2024-02-15T07:23:44;20.17;;;8.43;;
66542;SDS011;53395;37.360;-122.046;2024-02-15T07:26:28;17.42;;;8.45;;
66542;SDS011;53395;37.360;-122.046;2024-02-15T07:29:13;16.25;;;8.13;;
66542;SDS011;53395;37.360;-122.046;2024-02-15T07:32:02;19.05;;;8.88;;
66542;SDS011;53395;37.360;-122.046;2024-02-15T07:34:50;14.45;;;7.47;;
66542;SDS011;53395;37.360;-122.046;2024-02-15T07:37:35;15.25;;;7.88;;
66542;SDS011;53395;37.360;-122.046;2024-02-15T07:40:20;14.65;;;7.75;;
66542;SDS011;53395;37.360;-122.046;2024-02-15T07:43:06;15.18;;;7.40;;
66542;SDS011;53395;37.360;-122.046;2024-02-15T07:45:50;13.90;;;7.57;;
66542;SDS011;53395;37.360;-122.046;2024-02-15T07:48:35;13.35;;;7.00;;
66542;SDS011;53395;37.360;-122.046;2024-02-15T07:51:20;14.00;;;7.95;;
66542;SDS011;53395;37.360;-122.046;2024-02-15T07:54:05;14.85;;;7.22;;
66542;SDS011;53395;37.360;-122.046;2024-02-15T07:56:50;15.88;;;8.20;;
66542;SDS011;53395;37.360;-122.046;2024-02-15T07:59:34;15.07;;;8.23;;
66542;SDS011;53395;37.360;-122.046;2024-02-15T08:02:20;17.45;;;8.63;;
66542;SDS011;53395;37.360;-122.046;2024-02-15T08:05:07;17.80;;;8.98;;
66542;SDS011;53395;37.360;-122.046;2024-02-15T08:07:53;16.50;;;8.95;;
66542;SDS011;53395;37.360;-122.046;2024-02-15T08:10:41;18.38;;;9.13;;
66542;SDS011;53395;37.360;-122.046;2024-02-15T08:13:27;15.65;;;8.18;;
66542;SDS011;53395;37.360;-122.046;2024-02-15T08:16:13;19.17;;;9.20;;
66542;SDS011;53395;37.360;-122.046;2024-02-15T08:19:00;17.05;;;8.65;;
66542;SDS011;53395;37.360;-122.046;2024-02-15T08:21:45;18.35;;;8.98;;
66542;SDS011;53395;37.360;-122.046;2024-02-15T08:24:34;18.23;;;8.75;;
66542;SDS011;53395;37.360;-122.046;2024-02-15T08:27:19;17.35;;;8.68;;
66542;SDS011;53395;37.360;-122.046;2024-02-15T08:30:04;15.10;;;7.82;;
66542;SDS011;53395;37.360;-122.046;2024-02-15T08:32:52;15.23;;;7.75;;
66542;SDS011;53395;37.360;-122.046;2024-02-15T08:38:24;12.75;;;6.10;;
66542;SDS011;53395;37.360;-122.046;2024-02-15T08:41:08;12.40;;;6.22;;
66542;SDS011;53395;37.360;-122.046;2024-02-15T08:43:55;14.27;;;6.63;;
66542;SDS011;53395;37.360;-122.046;2024-02-15T08:46:44;13.52;;;5.55;;
66542;SDS011;53395;37.360;-122.046;2024-02-15T08:49:28;11.43;;;5.63;;
66542;SDS011;53395;37.360;-122.046;2024-02-15T08:52:14;9.95;;;4.25;;
66542;SDS011;53395;37.360;-122.046;2024-02-15T08:55:01;11.15;;;4.32;;
66542;SDS011;53395;37.360;-122.046;2024-02-15T08:57:46;11.05;;;4.53;;
66542;SDS011;53395;37.360;-122.046;2024-02-15T09:00:31;8.25;;;3.55;;
66542;SDS011;53395;37.360;-122.046;2024-02-15T09:03:15;11.52;;;4.32;;
66542;SDS011;53395;37.360;-122.046;2024-02-15T09:06:00;10.88;;;3.83;;
66542;SDS011;53395;37.360;-122.046;2024-02-15T09:08:47;9.18;;;3.92;;
66542;SDS011;53395;37.360;-122.046;2024-02-15T09:11:31;13.55;;;3.30;;
66542;SDS011;53395;37.360;-122.046;2024-02-15T09:14:18;11.98;;;3.33;;
66542;SDS011;53395;37.360;-122.046;2024-02-15T09:17:03;8.32;;;3.13;;
66542;SDS011;53395;37.360;-122.046;2024-02-15T09:19:53;10.00;;;2.85;;
66542;SDS011;53395;37.360;-122.046;2024-02-15T09:22:38;9.30;;;2.92;;
66542;SDS011;53395;37.360;-122.046;2024-02-15T09:25:23;7.18;;;2.60;;
66542;SDS011;53395;37.360;-122.046;2024-02-15T09:28:07;13.93;;;2.53;;
66542;SDS011;53395;37.360;-122.046;2024-02-15T09:30:52;5.80;;;2.15;;
66542;SDS011;53395;37.360;-122.046;2024-02-15T09:33:36;7.32;;;2.55;;
66542;SDS011;53395;37.360;-122.046;2024-02-15T09:36:21;7.35;;;2.72;;
66542;SDS011;53395;37.360;-122.046;2024-02-15T09:39:05;12.07;;;2.25;;
66542;SDS011;53395;37.360;-122.046;2024-02-15T09:41:50;7.20;;;1.77;;
66542;SDS011;53395;37.360;-122.046;2024-02-15T09:44:42;8.20;;;2.08;;
66542;SDS011;53395;37.360;-122.046;2024-02-15T09:50:13;21.42;;;2.53;;
66542;SDS011;53395;37.360;-122.046;2024-02-15T09:52:57;9.60;;;2.22;;
66542;SDS011;53395;37.360;-122.046;2024-02-15T09:55:42;11.82;;;2.15;;
66542;SDS011;53395;37.360;-122.046;2024-02-15T09:58:27;11.00;;;2.15;;
66542;SDS011;53395;37.360;-122.046;2024-02-15T10:01:12;7.45;;;2.00;;
66542;SDS011;53395;37.360;-122.046;2024-02-15T10:03:57;7.97;;;2.25;;
66542;SDS011;53395;37.360;-122.046;2024-02-15T10:06:43;15.55;;;2.20;;
66542;SDS011;53395;37.360;-122.046;2024-02-15T10:09:28;11.93;;;2.00;;
66542;SDS011;53395;37.360;-122.046;2024-02-15T10:12:13;7.82;;;2.05;;
66542;SDS011;53395;37.360;-122.046;2024-02-15T10:14:57;7.45;;;2.03;;
66542;SDS011;53395;37.360;-122.046;2024-02-15T10:17:41;13.35;;;2.15;;
66542;SDS011;53395;37.360;-122.046;2024-02-15T10:20:38;10.32;;;1.73;;
66542;SDS011;53395;37.360;-122.046;2024-02-15T10:23:22;7.32;;;1.65;;
66542;SDS011;53395;37.360;-122.046;2024-02-15T10:26:25;6.63;;;1.38;;
66542;SDS011;53395;37.360;-122.046;2024-02-15T10:29:11;11.18;;;1.95;;
66542;SDS011;53395;37.360;-122.046;2024-02-15T10:31:56;10.00;;;1.63;;
66542;SDS011;53395;37.360;-122.046;2024-02-15T10:34:43;6.13;;;1.60;;
66542;SDS011;53395;37.360;-122.046;2024-02-15T10:37:28;7.32;;;1.40;;
66542;SDS011;53395;37.360;-122.046;2024-02-15T10:40:13;13.70;;;1.70;;
66542;SDS011;53395;37.360;-122.046;2024-02-15T10:42:57;8.23;;;0.88;;
66542;SDS011;53395;37.360;-122.046;2024-02-15T10:45:42;7.07;;;1.48;;
66542;SDS011;53395;37.360;-122.046;2024-02-15T10:48:27;9.30;;;1.65;;
66542;SDS011;53395;37.360;-122.046;2024-02-15T10:51:14;9.32;;;1.20;;
66542;SDS011;53395;37.360;-122.046;2024-02-15T10:56:44;4.72;;;1.15;;
66542;SDS011;53395;37.360;-122.046;2024-02-15T10:59:31;12.68;;;1.40;;
66542;SDS011;53395;37.360;-122.046;2024-02-15T11:05:08;9.35;;;1.35;;
66542;SDS011;53395;37.360;-122.046;2024-02-15T11:07:58;5.80;;;0.90;;
66542;SDS011;53395;37.360;-122.046;2024-02-15T11:10:43;5.63;;;1.08;;
66542;SDS011;53395;37.360;-122.046;2024-02-15T11:13:28;7.13;;;1.45;;
66542;SDS011;53395;37.360;-122.046;2024-02-15T11:16:59;6.60;;;1.20;;
66542;SDS011;53395;37.360;-122.046;2024-02-15T11:22:21;7.10;;;1.30;;
66542;SDS011;53395;37.360;-122.046;2024-02-15T11:25:06;6.50;;;1.20;;
66542;SDS011;53395;37.360;-122.046;2024-02-15T11:27:55;5.80;;;1.13;;
66542;SDS011;53395;37.360;-122.046;2024-02-15T11:30:41;6.80;;;0.98;;
66542;SDS011;53395;37.360;-122.046;2024-02-15T11:33:30;7.03;;;1.35;;
66542;SDS011;53395;37.360;-122.046;2024-02-15T11:36:15;11.45;;;1.48;;
66542;SDS011;53395;37.360;-122.046;2024-02-15T11:39:01;3.15;;;0.82;;
66542;SDS011;53395;37.360;-122.046;2024-02-15T11:42:47;11.32;;;1.60;;
66542;SDS011;53395;37.360;-122.046;2024-02-15T11:45:14;8.32;;;1.30;;
66542;SDS011;53395;37.360;-122.046;2024-02-15T11:48:02;6.72;;;1.20;;
66542;SDS011;53395;37.360;-122.046;2024-02-15T11:50:46;7.95;;;1.20;;
66542;SDS011;53395;37.360;-122.046;2024-02-15T11:53:31;10.00;;;1.08;;
66542;SDS011;53395;37.360;-122.046;2024-02-15T11:56:16;9.10;;;1.40;;
66542;SDS011;53395;37.360;-122.046;2024-02-15T11:59:02;5.00;;;1.10;;
66542;SDS011;53395;37.360;-122.046;2024-02-15T12:01:48;10.25;;;1.63;;
66542;SDS011;53395;37.360;-122.046;2024-02-15T12:04:51;5.63;;;1.30;;
66542;SDS011;53395;37.360;-122.046;2024-02-15T12:07:55;4.65;;;1.00;;
66542;SDS011;53395;37.360;-122.046;2024-02-15T12:10:58;7.05;;;1.10;;
66542;SDS011;53395;37.360;-122.046;2024-02-15T12:14:01;5.30;;;1.10;;
66542;SDS011;53395;37.360;-122.046;2024-02-15T12:17:05;5.93;;;1.08;;
66542;SDS011;53395;37.360;-122.046;2024-02-15T12:20:08;8.38;;;1.02;;
66542;SDS011;53395;37.360;-122.046;2024-02-15T12:22:55;7.65;;;0.80;;
66542;SDS011;53395;37.360;-122.046;2024-02-15T12:25:39;6.55;;;1.13;;
66542;SDS011;53395;37.360;-122.046;2024-02-15T12:28:24;4.90;;;0.85;;
66542;SDS011;53395;37.360;-122.046;2024-02-15T12:31:09;7.22;;;1.02;;
66542;SDS011;53395;37.360;-122.046;2024-02-15T12:34:00;3.55;;;0.68;;
66542;SDS011;53395;37.360;-122.046;2024-02-15T12:36:45;5.80;;;0.90;;
66542;SDS011;53395;37.360;-122.046;2024-02-15T12:39:29;4.05;;;0.95;;
66542;SDS011;53395;37.360;-122.046;2024-02-15T12:42:16;8.68;;;1.23;;
66542;SDS011;53395;37.360;-122.046;2024-02-15T12:45:01;10.00;;;1.20;;
66542;SDS011;53395;37.360;-122.046;2024-02-15T12:50:33;7.80;;;0.95;;
66542;SDS011;53395;37.360;-122.046;2024-02-15T12:53:22;10.35;;;1.20;;
66542;SDS011;53395;37.360;-122.046;2024-02-15T12:56:06;4.70;;;1.00;;
66542;SDS011;53395;37.360;-122.046;2024-02-15T12:58:53;5.55;;;1.00;;
66542;SDS011;53395;37.360;-122.046;2024-02-15T13:01:37;3.80;;;0.82;;
66542;SDS011;53395;37.360;-122.046;2024-02-15T13:04:25;4.88;;;0.88;;
66542;SDS011;53395;37.360;-122.046;2024-02-15T13:07:10;7.75;;;1.15;;
66542;SDS011;53395;37.360;-122.046;2024-02-15T13:09:55;10.20;;;1.00;;
66542;SDS011;53395;37.360;-122.046;2024-02-15T13:12:39;7.70;;;1.13;;
66542;SDS011;53395;37.360;-122.046;2024-02-15T13:15:24;5.75;;;1.00;;
66542;SDS011;53395;37.360;-122.046;2024-02-15T13:18:16;4.15;;;1.02;;
66542;SDS011;53395;37.360;-122.046;2024-02-15T13:21:01;6.45;;;0.73;;
66542;SDS011;53395;37.360;-122.046;2024-02-15T13:23:46;7.03;;;1.00;;
66542;SDS011;53395;37.360;-122.046;2024-02-15T13:26:32;6.50;;;1.00;;
66542;SDS011;53395;37.360;-122.046;2024-02-15T13:32:02;5.78;;;0.90;;
66542;SDS011;53395;37.360;-122.046;2024-02-15T13:34:49;7.47;;;1.17;;
66542;SDS011;53395;37.360;-122.046;2024-02-15T13:37:45;6.93;;;0.93;;
66542;SDS011;53395;37.360;-122.046;2024-02-15T13:40:30;6.95;;;1.17;;
66542;SDS011;53395;37.360;-122.046;2024-02-15T13:43:15;8.73;;;1.13;;
66542;SDS011;53395;37.360;-122.046;2024-02-15T13:46:01;10.70;;;1.05;;
66542;SDS011;53395;37.360;-122.046;2024-02-15T13:48:45;10.60;;;1.73;;
66542;SDS011;53395;37.360;-122.046;2024-02-15T13:51:29;8.02;;;1.33;;
66542;SDS011;53395;37.360;-122.046;2024-02-15T13:54:14;13.13;;;1.10;;
66542;SDS011;53395;37.360;-122.046;2024-02-15T13:57:01;7.93;;;1.10;;
66542;SDS011;53395;37.360;-122.046;2024-02-15T13:59:46;7.57;;;1.63;;
66542;SDS011;53395;37.360;-122.046;2024-02-15T14:02:30;6.53;;;1.20;;
66542;SDS011;53395;37.360;-122.046;2024-02-15T14:05:15;7.07;;;1.10;;
66542;SDS011;53395;37.360;-122.046;2024-02-15T14:08:03;8.63;;;1.05;;
66542;SDS011;53395;37.360;-122.046;2024-02-15T14:10:53;6.60;;;1.10;;
66542;SDS011;53395;37.360;-122.046;2024-02-15T14:13:37;11.18;;;1.48;;
66542;SDS011;53395;37.360;-122.046;2024-02-15T14:16:22;7.95;;;1.20;;
66542;SDS011;53395;37.360;-122.046;2024-02-15T14:19:06;9.55;;;1.23;;
66542;SDS011;53395;37.360;-122.046;2024-02-15T14:21:51;9.13;;;1.10;;
66542;SDS011;53395;37.360;-122.046;2024-02-15T14:24:38;7.40;;;1.13;;
66542;SDS011;53395;37.360;-122.046;2024-02-15T14:27:23;3.67;;;0.90;;
66542;SDS011;53395;37.360;-122.046;2024-02-15T14:30:07;6.63;;;1.15;;
66542;SDS011;53395;37.360;-122.046;2024-02-15T14:33:11;10.70;;;1.30;;
66542;SDS011;53395;37.360;-122.046;2024-02-15T14:35:59;5.43;;;0.93;;
66542;SDS011;53395;37.360;-122.046;2024-02-15T14:38:44;5.90;;;1.40;;
66542;SDS011;53395;37.360;-122.046;2024-02-15T14:41:28;4.53;;;1.20;;
66542;SDS011;53395;37.360;-122.046;2024-02-15T14:44:12;9.07;;;1.40;;
66542;SDS011;53395;37.360;-122.046;2024-02-15T14:46:57;11.90;;;1.58;;
66542;SDS011;53395;37.360;-122.046;2024-02-15T14:49:41;8.27;;;1.10;;
66542;SDS011;53395;37.360;-122.046;2024-02-15T14:52:26;8.05;;;1.35;;
66542;SDS011;53395;37.360;-122.046;2024-02-15T14:55:11;7.50;;;0.93;;
66542;SDS011;53395;37.360;-122.046;2024-02-15T14:57:55;5.82;;;1.10;;
66542;SDS011;53395;37.360;-122.046;2024-02-15T15:00:40;10.00;;;1.30;;
66542;SDS011;53395;37.360;-122.046;2024-02-15T15:03:31;8.98;;;1.10;;
66542;SDS011;53395;37.360;-122.046;2024-02-15T15:06:21;8.05;;;1.00;;
66542;SDS011;53395;37.360;-122.046;2024-02-15T15:09:24;6.53;;;1.02;;
66542;SDS011;53395;37.360;-122.046;2024-02-15T15:12:27;6.93;;;1.33;;
66542;SDS011;53395;37.360;-122.046;2024-02-15T15:15:20;7.45;;;1.15;;
66542;SDS011;53395;37.360;-122.046;2024-02-15T15:20:52;8.63;;;1.52;;
66542;SDS011;53395;37.360;-122.046;2024-02-15T15:23:36;9.00;;;1.10;;
66542;SDS011;53395;37.360;-122.046;2024-02-15T15:26:21;8.80;;;1.30;;
66542;SDS011;53395;37.360;-122.046;2024-02-15T15:29:06;10.77;;;1.58;;
66542;SDS011;53395;37.360;-122.046;2024-02-15T15:31:50;8.85;;;1.20;;
66542;SDS011;53395;37.360;-122.046;2024-02-15T15:34:35;10.70;;;1.30;;
66542;SDS011;53395;37.360;-122.046;2024-02-15T15:37:21;8.52;;;1.17;;
66542;SDS011;53395;37.360;-122.046;2024-02-15T15:40:07;8.07;;;1.20;;
66542;SDS011;53395;37.360;-122.046;2024-02-15T15:42:52;5.47;;;1.15;;
66542;SDS011;53395;37.360;-122.046;2024-02-15T15:45:36;6.97;;;1.48;;
66542;SDS011;53395;37.360;-122.046;2024-02-15T15:48:21;8.38;;;1.15;;
66542;SDS011;53395;37.360;-122.046;2024-02-15T15:51:05;9.20;;;1.30;;
66542;SDS011;53395;37.360;-122.046;2024-02-15T15:53:53;11.85;;;1.27;;
66542;SDS011;53395;37.360;-122.046;2024-02-15T15:56:38;8.85;;;1.30;;
66542;SDS011;53395;37.360;-122.046;2024-02-15T15:59:23;8.60;;;1.30;;
66542;SDS011;53395;37.360;-122.046;2024-02-15T16:02:07;6.93;;;1.42;;
66542;SDS011;53395;37.360;-122.046;2024-02-15T16:04:52;11.27;;;1.52;;
66542;SDS011;53395;37.360;-122.046;2024-02-15T16:07:39;10.70;;;1.27;;
66542;SDS011;53395;37.360;-122.046;2024-02-15T16:10:26;8.73;;;1.42;;
66542;SDS011;53395;37.360;-122.046;2024-02-15T16:13:11;9.23;;;1.27;;
66542;SDS011;53395;37.360;-122.046;2024-02-15T16:15:56;11.60;;;1.75;;
66542;SDS011;53395;37.360;-122.046;2024-02-15T16:18:40;8.52;;;1.58;;